This is the latest recevied weather packets stored in our database for station/object AL7BX-WX. If no packets are shown the sender has not sent any weather packets the latest 10 day(s).
| Time | Temp. | Humidity | Pressure | Rain* | Wind** | Luminosity | Snow |
|---|---|---|---|---|---|---|---|
| 1777775223 | 18.33° C | 20% | 0 hPa | 0 mm | - | - | - |
| 1777772703 | 20° C | 19% | 0 hPa | 0 mm | - | - | - |
| 1777771623 | 20.56° C | 18% | 0 hPa | 0 mm | - | - | - |
| 1777769643 | 21.11° C | 18% | 0 hPa | 0 mm | - | - | - |
| 1777764963 | 22.78° C | 17% | 0 hPa | 0 mm | - | - | - |
| 1777763883 | 22.78° C | 16% | 0 hPa | 0 mm | - | - | - |
| 1777761363 | 22.78° C | 17% | 0 hPa | 0 mm | - | - | - |
| 1777759743 | 23.33° C | 18% | 0 hPa | 0 mm | - | - | - |
| 1777752133 | 21.67° C | 22% | 0 hPa | 0 mm | - | - | - |
| 1777749483 | 21.11° C | 22% | 0 hPa | 0 mm | - | - | - |
| 1777747503 | 20° C | 23% | 0 hPa | 0 mm | - | - | - |
| 1777746963 | 19.44° C | 24% | 0 hPa | 0 mm | - | - | - |
| 1777741203 | 16.67° C | 25% | 0 hPa | 0 mm | - | - | - |
| 1777734133 | 9.44° C | 41% | 0 hPa | 0 mm | - | - | - |
| 1777730403 | 2.78° C | 57% | 0 hPa | 0 mm | - | - | - |
| 1777728963 | 0.56° C | 60% | 0 hPa | 0 mm | - | - | - |
| 1777725903 | 0° C | 57% | 0 hPa | 0 mm | - | - | - |
| 1777724823 | 0° C | 58% | 0 hPa | 0 mm | - | - | - |
| 1777724283 | 0° C | 58% | 0 hPa | 0 mm | - | - | - |
| 1777722303 | 0.56° C | 56% | 0 hPa | 0 mm | - | - | - |
| 1777721894 | 1.11° C | 56% | 0 hPa | 0 mm | - | - | - |
| 1777721223 | 1.11° C | 56% | 0 hPa | 0 mm | - | - | - |
| 1777718833 | 1.67° C | 53% | 0 hPa | 0 mm | - | - | - |
| 1777718163 | 2.22° C | 53% | 0 hPa | 0 mm | - | - | - |
| 1777716674 | 2.22° C | 57% | 0 hPa | 0 mm | - | - | - |
* Rain latest hour (hover to see other rain measurements)
** Current wind speed in m/s (hover to see current wind gust speed)